createdAt,value
2018-11-03T00:01:52.647Z,55.39
2018-11-03T00:04:00.475Z,55.40
2018-11-03T00:06:08.206Z,55.41
2018-11-03T00:08:15.936Z,55.43
2018-11-03T00:10:23.736Z,55.46
2018-11-03T00:12:31.485Z,55.45
2018-11-03T00:14:39.184Z,55.49
2018-11-03T00:16:46.958Z,55.56
2018-11-03T00:18:54.648Z,55.63
2018-11-03T00:21:02.469Z,55.68
2018-11-03T00:23:10.353Z,55.83
2018-11-03T00:25:18.298Z,55.99
2018-11-03T00:27:26.013Z,56.04
2018-11-03T00:29:33.738Z,56.03
2018-11-03T00:31:41.485Z,56.09
2018-11-03T00:33:49.229Z,56.27
2018-11-03T00:35:56.998Z,56.46
2018-11-03T00:38:04.909Z,56.63
2018-11-03T00:40:14.768Z,56.75
2018-11-03T00:42:22.478Z,56.82
2018-11-03T00:44:30.165Z,56.86
2018-11-03T00:46:37.845Z,56.83
2018-11-03T00:48:45.558Z,56.77
2018-11-03T00:50:53.289Z,56.83
2018-11-03T00:53:01.116Z,56.95
2018-11-03T00:55:09.732Z,57.05
2018-11-03T00:57:17.473Z,57.15
2018-11-03T00:59:22.439Z,57.28
2018-11-03T01:01:30.141Z,57.40
2018-11-03T01:03:37.842Z,57.50
2018-11-03T01:05:45.528Z,57.61
2018-11-03T01:07:53.332Z,57.64
2018-11-03T01:10:01.064Z,57.65
2018-11-03T01:12:08.805Z,57.57
2018-11-03T01:14:16.543Z,57.51
2018-11-03T01:16:24.247Z,57.44
2018-11-03T01:18:31.959Z,57.33
2018-11-03T01:20:39.871Z,57.19
2018-11-03T01:22:47.569Z,57.05
2018-11-03T01:24:55.355Z,56.93
2018-11-03T01:27:03.279Z,56.85
2018-11-03T01:29:11.084Z,56.77
2018-11-03T01:31:18.814Z,56.69
2018-11-03T01:33:26.524Z,56.59
2018-11-03T01:35:34.264Z,56.54
2018-11-03T01:37:42.011Z,56.51
2018-11-03T01:39:49.723Z,56.49
2018-11-03T01:41:57.514Z,56.50
2018-11-03T01:44:05.260Z,56.49
2018-11-03T01:46:12.985Z,56.48
2018-11-03T01:48:20.686Z,56.43
2018-11-03T01:50:28.379Z,56.39
2018-11-03T01:52:36.530Z,56.31
2018-11-03T01:54:44.404Z,56.30
2018-11-03T01:56:52.203Z,56.32
2018-11-03T01:58:59.996Z,56.37
2018-11-03T02:01:04.898Z,56.45
2018-11-03T02:03:12.613Z,56.52
2018-11-03T02:05:20.323Z,56.55
2018-11-03T02:07:28.225Z,56.52
2018-11-03T02:09:35.905Z,56.54
2018-11-03T02:11:43.651Z,56.64
2018-11-03T02:13:51.402Z,56.76
2018-11-03T02:15:59.179Z,56.84
2018-11-03T02:18:06.894Z,56.94
2018-11-03T02:20:14.842Z,57.12
2018-11-03T02:22:22.529Z,57.19
2018-11-03T02:24:30.247Z,57.19
2018-11-03T02:26:37.935Z,57.16
2018-11-03T02:28:45.738Z,57.12
2018-11-03T02:30:53.452Z,57.07
2018-11-03T02:33:01.175Z,57.02
2018-11-03T02:35:10.432Z,57.02
2018-11-03T02:37:18.351Z,56.99
2018-11-03T02:39:26.018Z,57.05
2018-11-03T02:41:33.725Z,57.13
2018-11-03T02:43:41.432Z,57.12
2018-11-03T02:45:49.110Z,57.13
2018-11-03T02:47:56.824Z,57.09
2018-11-03T02:50:04.530Z,57.16
2018-11-03T02:52:12.332Z,57.26
2018-11-03T02:54:22.361Z,57.42
2018-11-03T02:56:30.221Z,57.56
2018-11-03T02:58:37.911Z,57.67
2018-11-03T03:00:45.605Z,57.76
2018-11-03T03:02:53.897Z,57.86
2018-11-03T03:05:01.662Z,57.99
2018-11-03T03:07:09.331Z,58.07
2018-11-03T03:09:17.031Z,58.13
2018-11-03T03:11:24.853Z,58.23
2018-11-03T03:13:32.531Z,58.32
2018-11-03T03:15:40.496Z,58.42
2018-11-03T03:17:48.180Z,58.41
2018-11-03T03:19:55.902Z,58.37
2018-11-03T03:22:03.570Z,58.38
2018-11-03T03:24:11.320Z,58.41
2018-11-03T03:26:19.012Z,58.35
2018-11-03T03:28:26.728Z,58.25
2018-11-03T03:30:34.455Z,58.18
2018-11-03T03:32:42.451Z,58.12
2018-11-03T03:34:50.245Z,58.13
2018-11-03T03:36:57.940Z,58.14
2018-11-03T03:39:07.680Z,58.16
2018-11-03T03:41:15.422Z,58.18
2018-11-03T03:43:23.137Z,58.07
2018-11-03T03:45:30.829Z,58.03
2018-11-03T03:47:38.604Z,57.99
2018-11-03T03:49:46.618Z,57.93
2018-11-03T03:51:54.450Z,57.84
2018-11-03T03:54:02.157Z,57.81
2018-11-03T03:56:09.922Z,57.84
2018-11-03T03:58:17.604Z,57.86
2018-11-03T04:00:25.333Z,57.83
2018-11-03T04:02:33.172Z,57.78
2018-11-03T04:04:41.327Z,57.79
2018-11-03T04:06:49.005Z,57.85
2018-11-03T04:08:56.742Z,57.88
2018-11-03T04:11:04.618Z,57.87
2018-11-03T04:13:12.399Z,57.97
2018-11-03T04:15:20.091Z,58.07
2018-11-03T04:17:27.810Z,58.20
2018-11-03T04:19:35.504Z,58.36
2018-11-03T04:21:43.187Z,58.48
2018-11-03T04:23:51.062Z,58.53
2018-11-03T04:25:58.775Z,58.46
2018-11-03T04:28:06.487Z,58.36
2018-11-03T04:30:15.122Z,58.36
2018-11-03T04:32:22.791Z,58.42
2018-11-03T04:34:30.508Z,58.53
2018-11-03T04:36:38.153Z,58.68
2018-11-03T04:38:45.829Z,58.76
2018-11-03T04:40:53.519Z,58.75
2018-11-03T04:43:01.229Z,58.79
2018-11-03T04:45:09.888Z,58.87
2018-11-03T04:47:17.904Z,59.01
2018-11-03T04:49:25.603Z,59.13
2018-11-03T04:51:35.052Z,59.20
2018-11-03T04:53:42.750Z,59.29
2018-11-03T04:55:50.441Z,59.35
2018-11-03T04:57:58.282Z,59.27
2018-11-03T05:00:06.218Z,59.15
2018-11-03T05:02:14.124Z,59.02
2018-11-03T05:04:21.922Z,58.93
2018-11-03T05:06:26.985Z,58.90
2018-11-03T05:08:34.693Z,58.84
2018-11-03T05:10:42.393Z,58.84
2018-11-03T05:12:50.069Z,58.82
2018-11-03T05:14:57.798Z,58.76
2018-11-03T05:17:05.565Z,58.73
2018-11-03T05:19:13.306Z,58.77
2018-11-03T05:21:21.226Z,58.83
2018-11-03T05:23:28.935Z,58.93
2018-11-03T05:25:36.602Z,59.04
2018-11-03T05:27:44.425Z,59.15
2018-11-03T05:29:52.105Z,59.23
2018-11-03T05:31:59.811Z,59.16
2018-11-03T05:34:07.678Z,59.03
2018-11-03T05:36:15.367Z,58.92
2018-11-03T05:38:25.394Z,58.86
2018-11-03T05:40:33.360Z,58.81
2018-11-03T05:42:41.040Z,58.80
2018-11-03T05:44:48.759Z,58.83
2018-11-03T05:46:56.485Z,58.84
2018-11-03T05:49:04.229Z,58.85
2018-11-03T05:51:11.938Z,58.80
2018-11-03T05:53:19.617Z,58.73
2018-11-03T05:55:27.349Z,58.71
2018-11-03T05:57:35.153Z,58.76
2018-11-03T05:59:42.821Z,58.89
2018-11-03T06:01:50.544Z,59.01
2018-11-03T06:03:58.280Z,59.14
2018-11-03T06:06:05.963Z,59.22
2018-11-03T06:08:10.854Z,59.33
2018-11-03T06:10:18.529Z,59.41
2018-11-03T06:12:26.337Z,59.52
2018-11-03T06:14:34.072Z,59.61
2018-11-03T06:16:41.776Z,59.72
2018-11-03T06:18:49.544Z,59.80
2018-11-03T06:20:57.335Z,59.72
2018-11-03T06:23:05.065Z,59.59
2018-11-03T06:25:12.715Z,59.44
2018-11-03T06:27:20.454Z,59.29
2018-11-03T06:29:28.153Z,59.19
2018-11-03T06:31:35.884Z,59.14
2018-11-03T06:33:44.713Z,59.10
2018-11-03T06:35:52.471Z,59.07
2018-11-03T06:38:00.166Z,59.06
2018-11-03T06:40:09.010Z,59.08
2018-11-03T06:42:16.807Z,59.07
2018-11-03T06:44:24.517Z,59.05
2018-11-03T06:46:32.296Z,59.02
2018-11-03T06:48:39.979Z,59.08
2018-11-03T06:50:47.676Z,59.14
2018-11-03T06:52:55.482Z,59.15
2018-11-03T06:55:03.191Z,59.13
2018-11-03T06:57:10.264Z,59.04
2018-11-03T06:59:18.576Z,59.07
2018-11-03T07:01:26.262Z,59.16
2018-11-03T07:03:34.095Z,59.31
2018-11-03T07:05:41.928Z,59.43
2018-11-03T07:07:49.663Z,59.47
2018-11-03T07:09:57.957Z,59.52
2018-11-03T07:12:06.202Z,59.61
2018-11-03T07:14:14.248Z,59.75
2018-11-03T07:16:21.997Z,59.82
2018-11-03T07:18:29.723Z,59.93
2018-11-03T07:20:37.699Z,59.99
2018-11-03T07:22:45.477Z,59.98
2018-11-03T07:24:53.258Z,60.00
2018-11-03T07:27:00.981Z,60.09
2018-11-03T07:29:09.404Z,60.18
2018-11-03T07:31:17.088Z,60.23
2018-11-03T07:33:24.787Z,60.22
2018-11-03T07:35:33.554Z,60.13
2018-11-03T07:37:41.288Z,60.08
2018-11-03T07:39:49.112Z,60.06
2018-11-03T07:41:56.812Z,60.06
2018-11-03T07:44:04.949Z,60.06
2018-11-03T07:46:12.711Z,60.14
2018-11-03T07:48:20.589Z,60.22
2018-11-03T07:50:28.240Z,60.35
2018-11-03T07:52:35.962Z,60.46
2018-11-03T07:54:43.742Z,60.50
2018-11-03T07:56:51.762Z,60.55
2018-11-03T07:58:59.659Z,60.61
2018-11-03T08:01:07.683Z,60.60
2018-11-03T08:03:15.416Z,60.54
2018-11-03T08:05:23.287Z,60.53
2018-11-03T08:07:31.074Z,60.54
2018-11-03T08:09:38.816Z,60.59
2018-11-03T08:11:44.069Z,60.55
2018-11-03T08:13:51.887Z,60.49
2018-11-03T08:15:59.837Z,60.43
2018-11-03T08:18:08.227Z,60.35
2018-11-03T08:20:16.072Z,60.30
2018-11-03T08:22:23.933Z,60.24
2018-11-03T08:24:31.669Z,60.14
2018-11-03T08:26:39.652Z,60.04
2018-11-03T08:28:47.435Z,59.97
2018-11-03T08:30:55.182Z,59.89
2018-11-03T08:33:02.932Z,59.86
2018-11-03T08:35:12.690Z,59.75
2018-11-03T08:37:20.374Z,59.71
2018-11-03T08:39:28.164Z,59.66
2018-11-03T08:41:35.877Z,59.62
2018-11-03T08:43:43.639Z,59.61
2018-11-03T08:45:51.346Z,59.54
2018-11-03T08:47:59.151Z,59.52
2018-11-03T08:50:08.654Z,59.49
2018-11-03T08:52:16.344Z,59.46
2018-11-03T08:54:24.154Z,59.40
2018-11-03T08:56:32.325Z,59.37
2018-11-03T08:58:40.051Z,59.33
2018-11-03T09:00:47.858Z,59.26
2018-11-03T09:02:55.597Z,59.20
2018-11-03T09:05:03.368Z,59.09
2018-11-03T09:07:11.295Z,58.97
2018-11-03T09:09:18.899Z,58.91
2018-11-03T09:11:26.638Z,58.90
2018-11-03T09:13:35.387Z,58.88
2018-11-03T09:15:43.128Z,58.87
2018-11-03T09:17:50.940Z,58.85
2018-11-03T09:19:58.726Z,58.86
2018-11-03T09:22:06.523Z,58.82
2018-11-03T09:24:14.290Z,58.85
2018-11-03T09:26:22.008Z,58.79
2018-11-03T09:28:29.830Z,58.69
2018-11-03T09:30:37.521Z,58.62
2018-11-03T09:32:45.675Z,58.54
2018-11-03T09:34:53.610Z,58.44
2018-11-03T09:37:01.450Z,58.40
2018-11-03T09:39:11.939Z,58.33
2018-11-03T09:41:19.578Z,58.31
2018-11-03T09:43:27.387Z,58.20
2018-11-03T09:45:35.085Z,58.13
2018-11-03T09:47:43.463Z,58.04
2018-11-03T09:49:51.517Z,57.96
2018-11-03T09:51:59.227Z,57.89
2018-11-03T09:54:07.203Z,57.80
2018-11-03T09:56:15.384Z,57.80
2018-11-03T09:58:23.175Z,57.73
2018-11-03T10:00:30.926Z,57.66
2018-11-03T10:02:39.133Z,57.55
2018-11-03T10:04:46.906Z,57.56
2018-11-03T10:06:54.721Z,57.54
2018-11-03T10:09:02.586Z,57.48
2018-11-03T10:11:11.041Z,57.44
2018-11-03T10:13:18.745Z,57.33
2018-11-03T10:15:26.975Z,57.14
2018-11-03T10:17:35.143Z,57.14
2018-11-03T10:19:42.996Z,57.04
2018-11-03T10:21:50.759Z,57.01
2018-11-03T10:23:58.521Z,56.95
2018-11-03T10:26:06.855Z,56.89
2018-11-03T10:28:14.967Z,56.84
2018-11-03T10:30:22.692Z,56.78
2018-11-03T10:32:30.447Z,56.78
2018-11-03T10:34:38.194Z,56.74
2018-11-03T10:36:45.913Z,56.72
2018-11-03T10:38:53.800Z,56.69
2018-11-03T10:41:01.545Z,56.55
2018-11-03T10:43:09.506Z,56.53
2018-11-03T10:45:17.693Z,56.54
2018-11-03T10:47:25.449Z,56.47
2018-11-03T10:53:48.594Z,56.11
2018-11-03T10:55:56.416Z,56.14
2018-11-03T10:58:04.135Z,56.12
2018-11-03T11:00:34.063Z,56.13
2018-11-03T11:02:58.938Z,56.07
2018-11-03T11:05:24.229Z,56.08
2018-11-03T11:07:49.150Z,56.01
2018-11-03T11:14:49.766Z,55.85
2018-11-03T11:16:54.941Z,55.85
2018-11-03T11:19:02.718Z,55.77
2018-11-03T11:21:10.486Z,55.58
2018-11-03T11:23:18.366Z,55.53
2018-11-03T11:25:26.167Z,55.41
2018-11-03T11:27:34.250Z,55.37
2018-11-03T11:29:42.108Z,55.22
2018-11-03T11:31:49.822Z,55.16
2018-11-03T11:33:58.193Z,55.21
2018-11-03T11:36:06.320Z,55.20
2018-11-03T11:38:14.729Z,55.20
2018-11-03T11:40:22.462Z,55.20
2018-11-03T11:42:30.531Z,55.17
2018-11-03T11:44:38.773Z,55.10
2018-11-03T11:46:46.863Z,55.04
2018-11-03T11:48:54.703Z,54.96
2018-11-03T11:51:02.908Z,54.84
2018-11-03T11:53:10.509Z,54.75
2018-11-03T11:55:18.701Z,54.68
2018-11-03T11:57:26.445Z,54.60
2018-11-03T11:59:34.225Z,54.54
2018-11-03T12:01:41.942Z,54.42
2018-11-03T12:03:49.662Z,54.48
2018-11-03T12:05:58.156Z,54.40
2018-11-03T12:08:06.079Z,54.38
2018-11-03T12:10:13.918Z,54.32
2018-11-03T12:12:21.668Z,54.29
2018-11-03T12:14:29.465Z,54.23
2018-11-03T12:16:37.263Z,54.25
2018-11-03T12:18:45.678Z,54.28
2018-11-03T12:20:53.426Z,54.19
2018-11-03T12:23:01.172Z,54.14
2018-11-03T12:25:11.004Z,54.08
2018-11-03T12:27:18.732Z,53.90
2018-11-03T12:29:26.561Z,53.81
2018-11-03T12:31:34.293Z,53.76
2018-11-03T12:33:42.129Z,53.87
2018-11-03T12:35:49.892Z,53.87
2018-11-03T12:37:57.750Z,53.69
2018-11-03T12:40:05.806Z,53.71
2018-11-03T12:42:13.566Z,53.76
2018-11-03T12:44:21.951Z,53.69
2018-11-03T12:46:29.682Z,53.65
2018-11-03T12:48:37.568Z,53.63
2018-11-03T12:50:45.282Z,53.49
2018-11-03T12:52:53.043Z,53.41
2018-11-03T12:55:08.976Z,53.28
2018-11-03T12:57:17.014Z,53.20
2018-11-03T12:59:25.391Z,53.21
2018-11-03T13:01:33.069Z,53.03
2018-11-03T13:03:40.931Z,53.08
2018-11-03T13:05:48.663Z,53.11
2018-11-03T13:07:56.670Z,53.10
2018-11-03T13:10:04.485Z,53.02
2018-11-03T13:12:12.222Z,52.86
2018-11-03T13:14:20.464Z,52.86
2018-11-03T13:16:28.579Z,52.92
2018-11-03T13:18:36.358Z,52.88
2018-11-03T13:20:45.040Z,52.84
2018-11-03T13:22:52.859Z,52.85
2018-11-03T13:25:00.598Z,52.62
2018-11-03T13:27:08.339Z,52.67
2018-11-03T13:29:16.122Z,52.58
2018-11-03T13:31:23.868Z,52.52
2018-11-03T13:33:31.823Z,52.57
2018-11-03T13:35:39.480Z,52.56
2018-11-03T13:37:47.597Z,52.50
2018-11-03T13:39:55.489Z,52.46
2018-11-03T13:42:03.436Z,52.34
2018-11-03T13:44:11.204Z,52.36
2018-11-03T13:46:19.110Z,52.37
2018-11-03T13:48:26.881Z,52.36
2018-11-03T13:50:34.919Z,52.33
2018-11-03T13:52:52.175Z,52.34
2018-11-03T13:55:01.192Z,52.36
2018-11-03T13:57:08.995Z,52.31
2018-11-03T13:59:16.866Z,52.31
2018-11-03T14:01:25.090Z,52.30
2018-11-03T14:03:32.849Z,52.27
2018-11-03T14:05:40.588Z,52.20
2018-11-03T14:07:48.344Z,52.01
2018-11-03T14:09:56.116Z,51.99
2018-11-03T14:12:04.181Z,52.04
2018-11-03T14:14:11.960Z,52.00
2018-11-03T14:16:20.454Z,51.99
2018-11-03T14:18:28.201Z,52.00
2018-11-03T14:20:35.983Z,51.95
2018-11-03T14:22:47.787Z,51.90
2018-11-03T14:24:55.552Z,51.96
2018-11-03T14:27:03.298Z,51.92
2018-11-03T14:29:11.191Z,51.92
2018-11-03T14:31:20.459Z,51.86
2018-11-03T14:33:29.934Z,51.84
2018-11-03T14:35:37.861Z,51.72
2018-11-03T14:37:45.621Z,51.67
2018-11-03T14:39:53.432Z,51.64
2018-11-03T14:42:01.213Z,51.60
2018-11-03T14:44:08.965Z,51.60
2018-11-03T14:46:16.791Z,51.64
2018-11-03T14:48:25.211Z,51.63
2018-11-03T14:50:34.081Z,51.60
2018-11-03T14:52:42.995Z,51.57
2018-11-03T14:54:51.252Z,51.53
2018-11-03T14:57:00.348Z,51.45
2018-11-03T14:59:08.309Z,51.42
2018-11-03T15:01:16.032Z,51.40
2018-11-03T15:03:23.835Z,51.38
2018-11-03T15:05:32.045Z,51.35
2018-11-03T15:07:40.140Z,51.33
2018-11-03T15:09:47.841Z,51.34
2018-11-03T15:11:55.655Z,51.33
2018-11-03T15:14:03.507Z,51.35
2018-11-03T15:16:11.102Z,51.34
2018-11-03T15:18:18.944Z,51.34
2018-11-03T15:20:26.710Z,51.31
2018-11-03T15:22:34.878Z,51.31
2018-11-03T15:24:40.704Z,51.31
2018-11-03T15:26:45.662Z,51.36
2018-11-03T15:28:53.400Z,51.34
2018-11-03T15:31:01.119Z,51.29
2018-11-03T15:33:09.052Z,51.28
2018-11-03T15:35:17.134Z,51.28
2018-11-03T15:37:25.006Z,51.26
2018-11-03T15:39:32.803Z,51.28
2018-11-03T15:41:41.360Z,51.31
2018-11-03T15:43:49.043Z,51.31
2018-11-03T15:45:56.915Z,51.22
2018-11-03T15:48:04.682Z,51.22
2018-11-03T15:50:13.307Z,51.21
2018-11-03T15:52:21.149Z,51.22
2018-11-03T15:54:28.918Z,51.16
2018-11-03T15:56:36.646Z,51.17
2018-11-03T15:58:44.395Z,51.17
2018-11-03T16:00:52.535Z,51.15
2018-11-03T16:03:00.321Z,51.12
2018-11-03T16:05:08.445Z,51.10
2018-11-03T16:07:16.199Z,51.04
2018-11-03T16:09:23.951Z,51.05
2018-11-03T16:11:31.703Z,51.06
2018-11-03T16:13:39.591Z,51.09
2018-11-03T16:15:47.297Z,51.14
2018-11-03T16:17:55.356Z,51.18
2018-11-03T16:20:03.548Z,51.25
2018-11-03T16:22:11.562Z,51.27
2018-11-03T16:24:19.310Z,51.27
2018-11-03T16:26:27.088Z,51.27
2018-11-03T16:28:35.097Z,51.28
2018-11-03T16:30:43.020Z,51.30
2018-11-03T16:32:51.034Z,51.38
2018-11-03T16:34:58.779Z,51.40
2018-11-03T16:37:06.976Z,51.46
2018-11-03T16:39:14.770Z,51.50
2018-11-03T16:41:22.632Z,51.55
2018-11-03T16:43:30.378Z,51.58
2018-11-03T16:45:38.240Z,51.61
2018-11-03T16:47:46.087Z,51.65
2018-11-03T16:49:53.822Z,51.69
2018-11-03T16:52:01.579Z,51.71
2018-11-03T16:54:09.411Z,51.74
2018-11-03T16:56:17.641Z,51.80
2018-11-03T16:58:25.479Z,51.82
2018-11-03T17:00:33.205Z,51.87
2018-11-03T17:02:41.509Z,51.88
2018-11-03T17:04:49.303Z,51.95
2018-11-03T17:06:55.100Z,51.97
2018-11-03T17:08:59.906Z,52.02
2018-11-03T17:11:07.785Z,52.05
2018-11-03T17:13:15.913Z,52.06
2018-11-03T17:15:23.754Z,52.08
2018-11-03T17:17:31.888Z,52.13
2018-11-03T17:19:39.675Z,52.21
2018-11-03T17:21:47.458Z,52.24
2018-11-03T17:23:55.279Z,52.28
2018-11-03T17:26:03.025Z,52.32
2018-11-03T17:28:10.831Z,52.37
2018-11-03T17:30:18.975Z,52.42
2018-11-03T17:32:26.822Z,52.43
2018-11-03T17:34:34.654Z,52.49
2018-11-03T17:36:42.491Z,52.57
2018-11-03T17:38:50.366Z,52.62
2018-11-03T17:40:58.187Z,52.65
2018-11-03T17:43:06.166Z,52.67
2018-11-03T17:45:14.151Z,52.69
2018-11-03T17:47:22.304Z,52.69
2018-11-03T17:49:30.209Z,52.72
2018-11-03T17:51:39.362Z,52.73
2018-11-03T17:53:47.630Z,52.76
2018-11-03T17:55:55.618Z,52.78
2018-11-03T17:58:03.435Z,52.82
2018-11-03T18:00:16.641Z,52.88
2018-11-03T18:02:24.370Z,52.92
2018-11-03T18:04:32.519Z,52.96
2018-11-03T18:06:40.282Z,53.02
2018-11-03T18:08:48.021Z,53.07
2018-11-03T18:10:55.835Z,53.08
2018-11-03T18:13:03.648Z,53.12
2018-11-03T18:15:11.834Z,53.15
2018-11-03T18:17:19.564Z,53.21
2018-11-03T18:19:27.413Z,53.26
2018-11-03T18:21:35.157Z,53.30
2018-11-03T18:23:43.500Z,53.33
2018-11-03T18:25:51.275Z,53.35
2018-11-03T18:27:59.023Z,53.39
2018-11-03T18:30:07.641Z,53.40
2018-11-03T18:32:15.488Z,53.41
2018-11-03T18:34:23.266Z,53.44
2018-11-03T18:36:31.064Z,53.45
2018-11-03T18:38:38.850Z,53.44
2018-11-03T18:40:47.727Z,53.43
2018-11-03T18:42:55.633Z,53.41
2018-11-03T18:45:03.503Z,53.40
2018-11-03T18:47:11.374Z,53.41
2018-11-03T18:49:19.219Z,53.39
2018-11-03T18:51:27.075Z,53.39
2018-11-03T18:53:34.893Z,53.40
2018-11-03T18:55:42.733Z,53.42
2018-11-03T18:57:50.506Z,53.43
2018-11-03T18:59:58.317Z,53.46
2018-11-03T19:02:06.866Z,53.47
2018-11-03T19:04:14.666Z,53.50
2018-11-03T19:06:22.428Z,53.51
2018-11-03T19:08:30.255Z,53.48
2018-11-03T19:10:38.061Z,53.50
2018-11-03T19:12:45.874Z,53.50
2018-11-03T19:14:53.636Z,53.54
2018-11-03T19:17:01.462Z,53.54
2018-11-03T19:19:10.460Z,53.57
2018-11-03T19:21:18.276Z,53.65
2018-11-03T19:23:26.051Z,53.68
2018-11-03T19:25:33.911Z,53.71
2018-11-03T19:27:42.029Z,53.72
2018-11-03T19:29:49.896Z,53.75
2018-11-03T19:31:57.632Z,53.78
2018-11-03T19:34:05.522Z,53.79
2018-11-03T19:36:14.014Z,53.81
2018-11-03T19:38:21.920Z,53.83
2018-11-03T19:40:29.718Z,53.81
2018-11-03T19:42:35.755Z,53.82
2018-11-03T19:44:40.744Z,53.80
2018-11-03T19:46:48.928Z,53.78
2018-11-03T19:48:56.744Z,53.76
2018-11-03T19:51:04.671Z,53.77
2018-11-03T19:53:12.434Z,53.81
2018-11-03T19:55:20.265Z,53.83
2018-11-03T19:57:28.610Z,53.86
2018-11-03T19:59:36.358Z,53.88
2018-11-03T20:01:44.604Z,53.90
2018-11-03T20:03:52.527Z,53.91
2018-11-03T20:06:00.338Z,53.91
2018-11-03T20:08:08.224Z,53.96
2018-11-03T20:10:16.344Z,53.98
2018-11-03T20:12:24.150Z,54.01
2018-11-03T20:14:31.954Z,54.03
2018-11-03T20:16:39.795Z,54.06
2018-11-03T20:18:48.175Z,54.10
2018-11-03T20:20:56.049Z,54.14
2018-11-03T20:23:03.921Z,54.15
2018-11-03T20:25:12.661Z,54.17
2018-11-03T20:27:20.486Z,54.17
2018-11-03T20:29:28.333Z,54.22
2018-11-03T20:31:36.436Z,54.24
2018-11-03T20:33:44.148Z,54.28
2018-11-03T20:35:52.626Z,54.30
2018-11-03T20:38:00.691Z,54.36
2018-11-03T20:40:09.871Z,54.41
2018-11-03T20:42:16.339Z,54.47
2018-11-03T20:44:21.226Z,54.54
2018-11-03T20:46:29.071Z,54.61
2018-11-03T20:48:36.898Z,54.67
2018-11-03T20:50:44.639Z,54.74
2018-11-03T20:52:52.833Z,54.76
2018-11-03T20:55:00.862Z,54.81
2018-11-03T20:57:08.668Z,54.91
2018-11-03T20:59:16.527Z,54.96
2018-11-03T21:01:24.311Z,55.01
2018-11-03T21:03:32.385Z,55.08
2018-11-03T21:05:40.248Z,55.08
2018-11-03T21:07:48.275Z,55.11
2018-11-03T21:09:56.713Z,55.13
2018-11-03T21:12:04.490Z,55.19
2018-11-03T21:14:12.292Z,55.25
2018-11-03T21:16:20.141Z,55.29
2018-11-03T21:18:27.949Z,55.35
2018-11-03T21:20:35.657Z,55.42
2018-11-03T21:22:43.473Z,55.49
2018-11-03T21:24:51.271Z,55.53
2018-11-03T21:26:59.034Z,55.55
2018-11-03T21:29:07.883Z,55.55
2018-11-03T21:31:15.753Z,55.50
2018-11-03T21:33:23.638Z,55.46
2018-11-03T21:35:31.298Z,55.44
2018-11-03T21:37:39.101Z,55.42
2018-11-03T21:39:46.913Z,55.41
2018-11-03T21:41:55.630Z,55.40
2018-11-03T21:44:00.512Z,55.38
2018-11-03T21:46:09.887Z,55.40
2018-11-03T21:48:17.526Z,55.41
2018-11-03T21:50:25.357Z,55.43
2018-11-03T21:52:33.138Z,55.46
2018-11-03T21:54:40.891Z,55.47
2018-11-03T21:56:48.735Z,55.47
2018-11-03T21:58:56.430Z,55.45
2018-11-03T22:01:04.264Z,55.44
2018-11-03T22:03:12.397Z,55.42
2018-11-03T22:05:20.442Z,55.37
2018-11-03T22:07:28.209Z,55.27
2018-11-03T22:09:35.976Z,55.23
2018-11-03T22:11:43.780Z,55.21
2018-11-03T22:13:51.542Z,55.20
2018-11-03T22:15:59.353Z,55.17
2018-11-03T22:18:07.315Z,55.12
2018-11-03T22:20:15.076Z,55.07
2018-11-03T22:22:22.875Z,55.01
2018-11-03T22:24:31.447Z,55.01
2018-11-03T22:26:39.204Z,55.02
2018-11-03T22:28:46.970Z,55.09
2018-11-03T22:30:54.704Z,55.11
2018-11-03T22:33:02.409Z,55.16
2018-11-03T22:35:10.184Z,55.21
2018-11-03T22:37:17.936Z,55.22
2018-11-03T22:39:25.714Z,55.14
2018-11-03T22:41:33.994Z,55.09
2018-11-03T22:43:38.910Z,55.04
2018-11-03T22:45:46.751Z,55.07
2018-11-03T22:47:54.512Z,55.10
2018-11-03T22:50:02.289Z,55.10
2018-11-03T22:52:10.163Z,55.09
2018-11-03T22:54:17.945Z,55.15
2018-11-03T22:56:25.706Z,55.18
2018-11-03T22:58:34.166Z,55.26
2018-11-03T23:00:59.979Z,55.33
2018-11-03T23:03:08.245Z,55.42
2018-11-03T23:05:16.033Z,55.49
2018-11-03T23:07:23.778Z,55.56
2018-11-03T23:09:31.605Z,55.57
2018-11-03T23:11:39.345Z,55.55
2018-11-03T23:13:47.446Z,55.53
2018-11-03T23:15:55.203Z,55.54
2018-11-03T23:18:02.970Z,55.58
2018-11-03T23:20:14.799Z,55.59
2018-11-03T23:22:22.560Z,55.61
2018-11-03T23:24:30.258Z,55.64
2018-11-03T23:26:37.986Z,55.73
2018-11-03T23:28:45.711Z,55.81
2018-11-03T23:30:53.803Z,55.85
2018-11-03T23:33:01.569Z,55.94
2018-11-03T23:35:13.871Z,56.05
2018-11-03T23:37:21.660Z,56.11
2018-11-03T23:39:29.543Z,56.12
2018-11-03T23:41:37.548Z,56.10
2018-11-03T23:43:45.268Z,56.08
2018-11-03T23:45:53.007Z,56.04
2018-11-03T23:48:01.012Z,55.99
2018-11-03T23:50:11.450Z,55.98
2018-11-03T23:52:33.701Z,56.02
2018-11-03T23:54:41.480Z,56.11
2018-11-03T23:56:49.185Z,56.17
2018-11-03T23:58:56.984Z,56.21
